Main page
METAR-TAF:

METAR-TAF

Airports :

Saskatoon John G. Diefenbaker International Airport

Saskatoon, Saskatchewan, Canada

latitude: 52-10N, longitude: 106-41W, elevation: 501 m

Current weather observation

The report was made 31 minutes ago, at 22:00 UTC
Wind 9 kt from the West/Northwest
Temperature 4°C
Humidity 70%
Pressure 1021 hPa
Visibility: 24.1 km
Few clouds at a height of 25000 ft

METAR: CYXE 182200Z 30009KT 15SM FEW250 04/M01 A3014 RMK CI1 SLP238

Time: 16:31 (22:31 UTC)

Forecast

The report was made 4 hours and 53 minutes ago, at 17:38 UTC
Forecast valid from 18 at 18 UTC to 19 at 18 UTC
Wind 12 kt from the West/Northwest
Visibility: 10 km
Clear sky
Becoming
from 19 at 04 UTC to 19 at 06 UTC
Wind 7 kt from the West/Southwest
From 19 at 0800 UTC
Wind 7 kt from the Southwest
Visibility: 10 km
Few clouds at a height of 12000 ft
Scattered clouds at a height of 24000 ft

TAF: CYXE 181738Z 1818/1918 30012KT P6SM SKC BECMG 1904/1906 24007KT FM190800 22007KT P6SM FEW120 SCT240 RMK NXT FCST BY 190000Z

Weather observations and forecasts of more than 4000 airports (METAR and TAF reports).

The available stations are represented by yellow and red dots on the map.

Hover mouse over dot to see the name of the station.

Then click to see weather observations and forecasts.

To change the map : click on the green buttons with a black cross to zoom in, on the green button with a dash to zoom out, or on the green arrows for adjacent maps.


METAR-TAF: